Time;durP1;ratioP1;P1;durP2;ratioP2;P2;SDS_P1;SDS_P2;PMS_P1;PMS_P2;Temp;Humidity;BMP_temperature;BMP_pressure;BME280_temperature;BME280_humidity;BME280_pressure;Samples;Min_cycle;Max_cycle;Signal;HPM_P1;HPM_P2
2023/09/08 00:02:16;;;;;;;18.70;13.82;;;15.00;99.90;;;;;;5047943;28;20454;-77
2023/09/08 00:04:42;;;;;;;18.98;14.18;;;14.90;99.90;;;;;;5023950;28;20129;-77
2023/09/08 00:07:07;;;;;;;19.13;14.68;;;14.90;99.90;;;;;;5038356;28;20069;-78
2023/09/08 00:09:33;;;;;;;16.88;14.13;;;14.80;99.90;;;;;;5041823;28;20105;-77
2023/09/08 00:11:59;;;;;;;16.60;14.10;;;14.80;99.90;;;;;;5025281;28;20082;-78
2023/09/08 00:14:24;;;;;;;18.88;15.48;;;14.70;99.90;;;;;;5048751;28;20037;-80
2023/09/08 00:16:54;;;;;;;18.58;15.20;;;14.70;99.90;;;;;;5048297;28;20053;-77
2023/09/08 00:19:20;;;;;;;19.73;16.17;;;14.70;99.90;;;;;;5029291;28;20025;-80
2023/09/08 00:21:46;;;;;;;18.63;15.35;;;14.70;99.90;;;;;;5013027;28;20026;-79
2023/09/08 00:24:12;;;;;;;21.70;16.13;;;14.60;99.90;;;;;;5030575;28;20022;-79
2023/09/08 00:26:38;;;;;;;22.40;17.35;;;14.60;99.90;;;;;;5029134;28;20112;-77
2023/09/08 00:29:03;;;;;;;20.48;16.67;;;14.60;99.90;;;;;;5030845;28;20115;-77
2023/09/08 00:31:29;;;;;;;18.75;15.40;;;14.60;99.90;;;;;;5029058;28;20033;-77
2023/09/08 00:33:54;;;;;;;19.58;14.38;;;14.60;99.90;;;;;;5038211;28;20017;-77
2023/09/08 00:36:20;;;;;;;19.75;15.55;;;14.60;99.90;;;;;;5034331;28;20473;-79
2023/09/08 00:38:46;;;;;;;20.73;17.98;;;14.60;99.90;;;;;;5036699;28;20478;-78
2023/09/08 00:41:11;;;;;;;27.25;20.23;;;14.60;99.90;;;;;;5018580;28;20113;-77
2023/09/08 00:43:37;;;;;;;28.90;20.85;;;14.60;99.90;;;;;;5041116;28;20013;-79
2023/09/08 00:46:03;;;;;;;29.95;20.67;;;14.60;99.90;;;;;;5029908;28;20032;-77
2023/09/08 00:48:29;;;;;;;30.08;23.00;;;14.60;99.90;;;;;;5042139;28;20043;-80
2023/09/08 00:50:55;;;;;;;33.88;21.60;;;14.60;99.90;;;;;;5030248;28;20029;-80
2023/09/08 00:53:21;;;;;;;30.55;20.60;;;14.60;99.90;;;;;;5030295;28;20036;-78
2023/09/08 00:55:48;;;;;;;27.60;21.65;;;14.60;99.90;;;;;;5030137;28;20036;-78
2023/09/08 00:58:14;;;;;;;33.90;23.48;;;14.60;99.90;;;;;;5023188;28;20025;-79
2023/09/08 01:00:39;;;;;;;35.45;22.88;;;14.60;99.90;;;;;;5012061;28;20022;-78
2023/09/08 01:03:05;;;;;;;30.52;21.90;;;14.60;99.90;;;;;;5013645;28;20022;-79
2023/09/08 01:05:32;;;;;;;28.77;21.48;;;14.60;99.90;;;;;;5028765;28;20022;-78
2023/09/08 01:07:59;;;;;;;33.00;23.23;;;14.60;99.90;;;;;;5016248;28;20402;-80
2023/09/08 01:10:25;;;;;;;31.58;22.70;;;14.60;99.90;;;;;;5030272;28;20467;-79
2023/09/08 01:12:51;;;;;;;31.40;23.80;;;14.60;99.90;;;;;;5033916;28;20077;-78
2023/09/08 01:15:17;;;;;;;34.25;23.73;;;14.60;99.90;;;;;;5030303;28;20034;-79
2023/09/08 01:17:42;;;;;;;37.15;26.88;;;14.60;99.90;;;;;;5023560;28;20033;-78
2023/09/08 01:20:21;;;;;;;33.15;24.38;;;14.50;99.90;;;;;;5028246;28;20492;-77
2023/09/08 01:23:18;;;;;;;37.58;27.60;;;14.50;99.90;;;;;;5029470;28;20482;-78
2023/09/08 01:25:51;;;;;;;40.13;27.27;;;14.50;99.90;;;;;;5028256;28;20033;-77
2023/09/08 01:28:18;;;;;;;40.40;28.13;;;14.50;99.90;;;;;;5028343;28;20049;-77
2023/09/08 01:30:45;;;;;;;37.47;28.48;;;14.60;99.90;;;;;;5028684;28;20089;-80
2023/09/08 01:33:11;;;;;;;41.80;28.50;;;14.60;99.90;;;;;;5016257;28;20037;-79
2023/09/08 01:35:37;;;;;;;39.92;26.05;;;14.60;99.90;;;;;;5028648;28;20531;-78
2023/09/08 01:38:03;;;;;;;40.40;28.20;;;14.60;99.90;;;;;;5028125;28;20132;-79
2023/09/08 01:40:29;;;;;;;37.20;27.92;;;14.60;99.90;;;;;;5029632;28;20069;-78
2023/09/08 01:42:54;;;;;;;39.42;28.17;;;14.60;99.90;;;;;;5028281;28;20022;-79
2023/09/08 01:45:20;;;;;;;36.03;26.17;;;14.70;99.90;;;;;;5028547;28;20032;-78
2023/09/08 01:47:45;;;;;;;39.20;27.92;;;14.60;99.90;;;;;;5028086;28;20018;-77
2023/09/08 01:50:11;;;;;;;34.42;25.60;;;14.60;99.90;;;;;;5036511;28;20027;-79
2023/09/08 01:52:37;;;;;;;36.05;25.38;;;14.60;99.90;;;;;;5046159;28;20029;-78
2023/09/08 01:55:02;;;;;;;38.42;26.92;;;14.60;99.90;;;;;;5036471;28;20013;-78
2023/09/08 01:57:28;;;;;;;30.23;23.33;;;14.60;99.90;;;;;;5045846;28;20064;-80
2023/09/08 01:59:54;;;;;;;36.35;26.98;;;14.60;99.90;;;;;;5037833;28;20096;-80
2023/09/08 02:02:19;;;;;;;38.38;27.60;;;14.60;99.90;;;;;;5047485;28;20486;-79
2023/09/08 02:04:45;;;;;;;30.85;22.33;;;14.60;99.90;;;;;;5040348;28;20029;-78
2023/09/08 02:07:11;;;;;;;38.35;25.52;;;14.60;99.90;;;;;;5016646;28;20022;-77
2023/09/08 02:09:37;;;;;;;40.88;27.23;;;14.60;99.90;;;;;;5040768;28;20017;-78
2023/09/08 02:12:04;;;;;;;33.38;23.88;;;14.50;99.90;;;;;;5028428;28;20018;-78
2023/09/08 02:14:29;;;;;;;34.72;25.52;;;14.50;99.90;;;;;;5040491;28;20025;-80
2023/09/08 02:16:56;;;;;;;36.72;26.42;;;14.50;99.90;;;;;;5028010;28;20584;-77
2023/09/08 02:19:22;;;;;;;33.83;23.13;;;14.50;99.90;;;;;;5040273;28;20404;-78
2023/09/08 02:21:48;;;;;;;34.78;24.25;;;14.40;99.90;;;;;;5040715;28;20025;-79
2023/09/08 02:24:14;;;;;;;29.88;23.88;;;14.40;99.90;;;;;;5048107;28;20024;-77
2023/09/08 02:26:40;;;;;;;30.95;23.05;;;14.40;99.90;;;;;;5045868;28;20021;-77
2023/09/08 02:29:07;;;;;;;33.17;24.70;;;14.30;99.90;;;;;;5039969;28;20014;-77
2023/09/08 02:31:32;;;;;;;33.20;24.10;;;14.30;99.90;;;;;;5027581;28;20462;-80
2023/09/08 02:33:58;;;;;;;29.02;20.50;;;14.30;99.90;;;;;;5039054;28;20081;-78
2023/09/08 02:36:26;;;;;;;29.27;19.85;;;14.30;99.90;;;;;;5049556;28;20100;-78
2023/09/08 02:38:53;;;;;;;20.52;15.32;;;14.30;99.90;;;;;;5044691;28;20044;-79
2023/09/08 02:41:19;;;;;;;27.95;19.52;;;14.30;99.90;;;;;;5044121;28;20028;-80
2023/09/08 02:43:45;;;;;;;29.10;20.50;;;14.30;99.90;;;;;;5049914;28;20017;-79
2023/09/08 02:46:10;;;;;;;27.05;19.33;;;14.30;99.90;;;;;;5036243;28;20030;-80
2023/09/08 02:48:37;;;;;;;28.38;21.77;;;14.30;99.90;;;;;;5042662;28;20017;-77
2023/09/08 02:51:03;;;;;;;27.67;20.95;;;14.20;99.90;;;;;;5043268;28;20438;-78
2023/09/08 02:53:29;;;;;;;25.25;21.40;;;14.20;99.90;;;;;;5038215;28;20048;-79
2023/09/08 02:55:55;;;;;;;28.13;21.55;;;14.20;99.90;;;;;;5044217;28;20108;-77
2023/09/08 02:58:21;;;;;;;29.08;21.63;;;14.20;99.90;;;;;;5033071;28;20079;-79
2023/09/08 03:00:46;;;;;;;26.95;19.52;;;14.20;99.90;;;;;;5048728;28;20430;-79
2023/09/08 03:03:12;;;;;;;28.02;21.90;;;14.20;99.90;;;;;;5051057;28;20059;-79
2023/09/08 03:05:38;;;;;;;26.40;18.85;;;14.20;99.90;;;;;;5049205;28;20103;-79
2023/09/08 03:08:05;;;;;;;26.90;21.48;;;14.10;99.90;;;;;;5020359;28;20023;-78
2023/09/08 03:10:33;;;;;;;29.17;22.20;;;14.10;99.90;;;;;;5030473;28;20098;-79
2023/09/08 03:13:02;;;;;;;22.10;17.42;;;14.10;99.90;;;;;;5031968;28;20032;-78
2023/09/08 03:15:28;;;;;;;25.10;19.73;;;14.00;99.90;;;;;;5030471;28;20493;-78
2023/09/08 03:18:01;;;;;;;27.90;20.75;;;14.00;99.90;;;;;;5031795;28;20041;-78
2023/09/08 03:20:28;;;;;;;29.65;21.45;;;13.90;99.90;;;;;;5031541;28;20022;-77
2023/09/08 03:22:54;;;;;;;28.52;20.75;;;13.90;99.90;;;;;;5030257;28;20022;-77
2023/09/08 03:25:20;;;;;;;28.60;20.98;;;13.90;99.90;;;;;;5030291;28;20033;-77
2023/09/08 03:27:45;;;;;;;30.63;21.20;;;13.80;99.90;;;;;;5030457;28;20025;-78
2023/09/08 03:30:11;;;;;;;29.88;22.25;;;13.80;99.90;;;;;;5047400;28;20073;-80
2023/09/08 03:32:37;;;;;;;35.08;23.95;;;13.80;99.90;;;;;;5049684;28;20466;-78
2023/09/08 03:35:07;;;;;;;29.42;22.40;;;13.80;99.90;;;;;;5049659;28;20021;-78
2023/09/08 03:37:34;;;;;;;32.70;24.42;;;13.90;99.90;;;;;;5050685;28;20603;-77
2023/09/08 03:40:00;;;;;;;31.83;23.52;;;13.90;99.90;;;;;;5033967;28;20033;-77
2023/09/08 03:42:25;;;;;;;28.95;21.92;;;14.00;99.90;;;;;;5039943;28;20458;-78
2023/09/08 03:44:51;;;;;;;30.20;22.20;;;14.00;99.90;;;;;;5045786;28;20462;-78
2023/09/08 03:47:17;;;;;;;28.48;21.63;;;14.00;99.90;;;;;;5040988;28;20389;-80
2023/09/08 03:49:42;;;;;;;31.42;22.73;;;14.00;99.90;;;;;;5033478;28;20090;-78
2023/09/08 03:52:08;;;;;;;32.00;22.50;;;14.00;99.90;;;;;;5039787;28;20028;-78
2023/09/08 03:54:34;;;;;;;38.15;23.88;;;14.00;99.90;;;;;;5035105;28;20037;-80
2023/09/08 03:56:59;;;;;;;27.80;22.52;;;14.10;99.90;;;;;;5043604;28;20072;-80
2023/09/08 03:59:25;;;;;;;29.73;22.55;;;14.10;99.90;;;;;;5031272;28;20379;-79
2023/09/08 04:01:50;;;;;;;32.83;21.70;;;14.20;99.90;;;;;;5035943;28;20520;-78
2023/09/08 04:04:16;;;;;;;30.48;23.13;;;14.20;99.90;;;;;;5029715;28;20017;-79
2023/09/08 04:06:42;;;;;;;34.45;24.17;;;14.10;99.90;;;;;;5020591;28;20050;-79
2023/09/08 04:09:07;;;;;;;31.42;23.75;;;14.20;99.90;;;;;;5026651;28;20363;-78
2023/09/08 04:11:33;;;;;;;33.05;22.85;;;14.20;99.90;;;;;;5030781;28;20033;-77
2023/09/08 04:13:59;;;;;;;31.25;22.45;;;14.30;99.90;;;;;;5033672;28;20499;-79
2023/09/08 04:16:26;;;;;;;33.47;24.20;;;14.30;99.90;;;;;;5031046;28;20028;-80
2023/09/08 04:18:51;;;;;;;34.10;23.45;;;14.30;99.90;;;;;;5038029;28;20655;-77
2023/09/08 04:21:17;;;;;;;35.58;24.25;;;14.30;99.90;;;;;;5043222;28;20112;-80
2023/09/08 04:23:42;;;;;;;35.10;25.40;;;14.30;99.90;;;;;;5043009;28;20017;-80
2023/09/08 04:26:08;;;;;;;29.38;21.77;;;14.40;99.90;;;;;;5029611;28;20542;-79
2023/09/08 04:28:34;;;;;;;31.90;22.70;;;14.40;99.90;;;;;;5028490;28;20048;-80
2023/09/08 04:30:59;;;;;;;27.55;21.25;;;14.40;99.90;;;;;;5027507;28;20033;-80
2023/09/08 04:33:25;;;;;;;32.08;22.70;;;14.40;99.90;;;;;;5019042;28;20033;-79
2023/09/08 04:35:51;;;;;;;30.63;22.33;;;14.50;99.90;;;;;;5028390;28;20029;-80
2023/09/08 04:38:17;;;;;;;31.25;22.52;;;14.50;99.90;;;;;;5025668;28;20125;-77
2023/09/08 04:40:45;;;;;;;22.40;18.10;;;14.50;99.90;;;;;;5015518;28;20034;-77
2023/09/08 04:43:11;;;;;;;27.40;20.10;;;14.50;99.90;;;;;;5026354;28;20036;-77
2023/09/08 04:45:37;;;;;;;29.92;22.00;;;14.50;99.90;;;;;;5029115;28;20026;-78
2023/09/08 04:48:04;;;;;;;31.00;21.70;;;14.50;99.90;;;;;;5031227;28;20048;-78
2023/09/08 04:50:29;;;;;;;30.58;21.35;;;14.60;99.90;;;;;;5028685;28;20120;-77
2023/09/08 04:52:55;;;;;;;27.15;20.50;;;14.60;99.90;;;;;;5041537;28;20100;-77
2023/09/08 04:55:21;;;;;;;31.20;21.48;;;14.70;99.90;;;;;;5042197;28;20036;-78
2023/09/08 04:57:46;;;;;;;27.13;18.25;;;14.70;99.90;;;;;;5028144;28;20038;-80
2023/09/08 05:00:12;;;;;;;26.90;20.13;;;14.80;99.90;;;;;;5014911;28;20042;-78
2023/09/08 05:02:38;;;;;;;21.70;18.50;;;14.90;99.90;;;;;;5025591;28;20094;-78
2023/09/08 05:05:04;;;;;;;30.65;20.65;;;15.00;99.90;;;;;;5028804;28;20057;-78
2023/09/08 05:07:30;;;;;;;26.35;19.98;;;15.10;99.90;;;;;;5014605;28;20018;-79
2023/09/08 05:09:55;;;;;;;22.88;19.15;;;15.30;99.90;;;;;;5010461;28;20018;-77
2023/09/08 05:12:21;;;;;;;28.00;20.50;;;15.30;99.90;;;;;;5012228;28;20017;-78
2023/09/08 05:14:48;;;;;;;25.25;19.45;;;15.40;99.90;;;;;;5025541;28;20026;-78
2023/09/08 05:17:14;;;;;;;25.67;18.88;;;15.60;99.90;;;;;;5024373;28;20029;-78
2023/09/08 05:19:40;;;;;;;25.35;19.38;;;15.70;99.90;;;;;;5016163;28;20079;-79
2023/09/08 05:22:09;;;;;;;29.35;19.83;;;15.70;99.90;;;;;;5037779;28;20531;-78
2023/09/08 05:24:34;;;;;;;24.30;17.90;;;15.90;99.90;;;;;;5029761;28;20079;-81
2023/09/08 05:27:00;;;;;;;25.95;17.52;;;16.00;99.90;;;;;;5035713;28;20024;-80
2023/09/08 05:29:26;;;;;;;23.75;17.33;;;16.10;99.90;;;;;;5036509;28;20022;-81
2023/09/08 05:31:51;;;;;;;19.63;16.13;;;16.20;99.90;;;;;;5029350;28;20436;-79
2023/09/08 05:34:17;;;;;;;24.08;17.63;;;16.30;99.90;;;;;;5030604;28;20065;-78
2023/09/08 05:36:43;;;;;;;23.65;17.63;;;16.50;99.90;;;;;;5027981;28;20450;-78
2023/09/08 05:39:10;;;;;;;23.98;16.25;;;16.60;99.90;;;;;;5032440;28;20042;-79
2023/09/08 05:41:35;;;;;;;20.77;16.08;;;16.80;99.90;;;;;;5041152;28;20142;-77
2023/09/08 05:44:02;;;;;;;24.08;18.77;;;16.90;99.90;;;;;;5028996;28;20117;-77
2023/09/08 05:46:27;;;;;;;21.40;18.23;;;17.00;99.90;;;;;;5025719;28;20030;-78
2023/09/08 05:48:53;;;;;;;29.23;18.35;;;17.20;99.90;;;;;;5027084;28;20032;-80
2023/09/08 05:51:19;;;;;;;26.45;17.75;;;17.30;99.90;;;;;;5025215;28;20062;-78
2023/09/08 05:53:44;;;;;;;22.33;17.48;;;17.40;99.90;;;;;;5021568;28;20028;-78
2023/09/08 05:56:10;;;;;;;24.77;16.63;;;17.50;99.90;;;;;;5032108;28;20041;-80
2023/09/08 05:58:36;;;;;;;24.10;16.23;;;17.70;99.90;;;;;;5026167;28;20645;-78
2023/09/08 06:01:02;;;;;;;22.45;16.95;;;17.80;99.90;;;;;;5030329;28;20036;-78
2023/09/08 06:03:28;;;;;;;21.38;17.45;;;17.90;99.90;;;;;;5026309;28;20028;-80
2023/09/08 06:05:54;;;;;;;20.23;15.07;;;18.10;99.90;;;;;;5026084;28;20026;-81
2023/09/08 06:08:20;;;;;;;20.35;16.13;;;18.20;99.90;;;;;;5020616;28;20458;-81
2023/09/08 06:10:45;;;;;;;20.55;14.70;;;18.40;99.90;;;;;;5043721;28;20051;-81
2023/09/08 06:13:11;;;;;;;18.63;14.38;;;18.40;99.90;;;;;;5030468;28;20025;-80
2023/09/08 06:15:37;;;;;;;23.20;17.05;;;18.60;99.90;;;;;;5034551;28;20021;-80
2023/09/08 06:18:03;;;;;;;18.25;14.07;;;18.60;99.90;;;;;;5044118;28;20040;-78
2023/09/08 06:20:28;;;;;;;22.75;15.82;;;18.60;99.90;;;;;;5049552;28;20094;-80
2023/09/08 06:22:54;;;;;;;18.77;15.98;;;18.70;99.90;;;;;;5042772;28;20041;-78
2023/09/08 06:25:19;;;;;;;22.77;14.85;;;18.80;99.90;;;;;;5045394;28;20029;-80
2023/09/08 06:27:45;;;;;;;20.35;14.40;;;18.80;99.90;;;;;;5031449;28;20033;-79
2023/09/08 06:30:13;;;;;;;18.25;13.85;;;18.90;99.90;;;;;;5040306;28;20053;-78
2023/09/08 06:32:39;;;;;;;18.23;14.27;;;19.10;99.90;;;;;;5040685;28;20364;-79
2023/09/08 06:35:04;;;;;;;19.88;15.18;;;19.20;99.90;;;;;;5032377;28;20062;-80
2023/09/08 06:37:36;;;;;;;20.67;15.30;;;19.30;99.90;;;;;;5041370;28;20061;-80
2023/09/08 06:40:02;;;;;;;18.75;14.38;;;19.40;99.90;;;;;;5033712;28;20035;-80
2023/09/08 06:42:27;;;;;;;17.88;14.00;;;19.60;99.90;;;;;;5032431;28;20033;-79
2023/09/08 06:44:53;;;;;;;18.02;13.98;;;19.70;99.90;;;;;;5032149;28;20036;-80
2023/09/08 06:47:18;;;;;;;19.27;14.00;;;19.80;99.90;;;;;;5032467;28;20021;-79
2023/09/08 06:49:44;;;;;;;16.27;12.57;;;19.80;99.90;;;;;;5032359;28;20024;-79
2023/09/08 06:52:09;;;;;;;16.27;14.00;;;19.90;99.90;;;;;;5031069;28;20017;-80
2023/09/08 06:54:35;;;;;;;16.35;13.52;;;20.00;99.90;;;;;;5032581;28;20020;-79
2023/09/08 06:57:01;;;;;;;16.60;13.00;;;20.10;99.90;;;;;;5032674;28;20025;-79
2023/09/08 06:59:26;;;;;;;16.95;12.13;;;20.20;99.90;;;;;;5030504;28;20505;-80
2023/09/08 07:01:52;;;;;;;18.58;13.50;;;20.30;99.90;;;;;;5032571;28;20052;-79
2023/09/08 07:04:18;;;;;;;15.60;12.20;;;20.30;99.90;;;;;;5032785;28;20013;-80
2023/09/08 07:06:44;;;;;;;15.35;10.98;;;20.50;99.90;;;;;;5021447;28;20045;-80
2023/09/08 07:09:10;;;;;;;14.18;10.90;;;20.60;99.90;;;;;;5018045;28;20018;-80
2023/09/08 07:11:36;;;;;;;19.05;12.07;;;20.70;99.90;;;;;;5032049;28;20450;-80
2023/09/08 07:14:02;;;;;;;13.80;11.68;;;20.90;99.90;;;;;;5044622;28;20018;-80
2023/09/08 07:16:28;;;;;;;14.77;12.00;;;21.10;99.90;;;;;;5030711;28;20403;-80
2023/09/08 07:18:53;;;;;;;14.60;9.98;;;21.20;99.90;;;;;;5021748;28;20058;-79
2023/09/08 07:21:19;;;;;;;14.02;9.30;;;21.30;99.90;;;;;;5041248;28;20376;-79
2023/09/08 07:23:45;;;;;;;13.73;10.77;;;21.50;99.90;;;;;;5033021;28;20756;-81
2023/09/08 07:26:10;;;;;;;15.45;10.10;;;21.70;99.90;;;;;;5032523;28;20040;-80
2023/09/08 07:28:36;;;;;;;12.85;9.05;;;21.80;95.20;;;;;;5035467;28;20070;-80
2023/09/08 07:31:03;;;;;;;12.85;9.52;;;21.80;91.20;;;;;;5030914;28;20036;-80
2023/09/08 07:33:29;;;;;;;12.57;9.65;;;21.80;88.50;;;;;;5021208;28;20055;-81
2023/09/08 07:35:54;;;;;;;12.70;9.18;;;21.90;88.80;;;;;;5030207;28;20051;-80
2023/09/08 07:38:20;;;;;;;10.73;8.80;;;22.10;87.50;;;;;;5031698;28;20049;-81
2023/09/08 07:40:45;;;;;;;13.18;9.15;;;22.10;82.90;;;;;;5032196;28;20095;-80
2023/09/08 07:43:11;;;;;;;13.52;8.98;;;22.10;83.20;;;;;;5034590;28;20458;-81
2023/09/08 07:45:37;;;;;;;15.32;9.05;;;22.10;84.20;;;;;;5022502;28;20033;-80
2023/09/08 07:48:03;;;;;;;9.82;7.93;;;22.10;82.00;;;;;;5028715;28;20018;-80
2023/09/08 07:50:29;;;;;;;10.60;8.38;;;22.10;83.00;;;;;;5032984;28;20057;-80
2023/09/08 07:52:56;;;;;;;12.93;8.55;;;22.20;82.90;;;;;;5032592;28;20029;-80
2023/09/08 07:55:23;;;;;;;10.00;8.40;;;22.40;82.20;;;;;;5031365;28;20394;-81
2023/09/08 07:57:50;;;;;;;12.60;8.73;;;22.50;81.90;;;;;;5032572;28;20055;-81
2023/09/08 08:00:17;;;;;;;17.25;9.27;;;22.70;81.70;;;;;;5031561;28;20044;-81
2023/09/08 08:02:47;;;;;;;14.02;9.00;;;22.50;79.40;;;;;;5032389;28;20017;-81
2023/09/08 08:05:13;;;;;;;13.18;8.68;;;22.50;79.40;;;;;;5031317;28;20025;-80
2023/09/08 08:07:39;;;;;;;13.88;7.97;;;22.70;78.00;;;;;;5017528;28;20018;-80
2023/09/08 08:10:06;;;;;;;10.30;7.55;;;22.70;76.00;;;;;;5040911;28;20546;-80
2023/09/08 08:12:32;;;;;;;9.45;7.35;;;22.80;77.30;;;;;;5032728;28;20030;-80
2023/09/08 08:15:01;;;;;;;13.48;8.10;;;22.90;77.20;;;;;;5040938;28;20379;-81
2023/09/08 08:17:27;;;;;;;9.18;7.95;;;23.20;77.00;;;;;;5045308;28;20041;-81
2023/09/08 08:19:54;;;;;;;10.68;7.75;;;23.30;75.30;;;;;;5041147;28;20021;-81
2023/09/08 08:22:20;;;;;;;11.07;7.95;;;23.30;73.20;;;;;;5049526;28;20025;-81
2023/09/08 08:24:46;;;;;;;10.93;7.38;;;23.30;72.50;;;;;;5037514;28;20104;-81
2023/09/08 08:27:11;;;;;;;10.13;8.30;;;23.50;72.10;;;;;;5030791;28;20105;-80
2023/09/08 08:29:38;;;;;;;9.32;7.45;;;23.60;70.70;;;;;;5042095;28;20063;-80
2023/09/08 08:32:04;;;;;;;12.07;7.30;;;23.60;72.10;;;;;;5044227;28;20021;-80
2023/09/08 08:34:30;;;;;;;8.15;7.35;;;23.60;70.10;;;;;;5030932;28;20094;-81
2023/09/08 08:36:56;;;;;;;12.77;7.45;;;23.70;69.10;;;;;;5042851;28;20038;-80
2023/09/08 08:39:21;;;;;;;9.65;6.68;;;23.80;70.40;;;;;;5030646;28;20030;-80
2023/09/08 08:41:47;;;;;;;8.30;6.75;;;23.80;68.40;;;;;;5045560;28;20547;-80
2023/09/08 08:44:15;;;;;;;11.05;7.10;;;23.90;68.10;;;;;;5029302;28;20026;-81
2023/09/08 08:46:42;;;;;;;10.68;6.28;;;23.80;67.60;;;;;;5034729;28;20031;-81
2023/09/08 08:49:11;;;;;;;8.07;6.63;;;23.90;68.20;;;;;;5036470;28;20067;-81
2023/09/08 08:51:37;;;;;;;8.25;6.55;;;24.10;67.40;;;;;;5048933;28;20103;-82
2023/09/08 08:54:04;;;;;;;8.23;6.43;;;24.10;65.50;;;;;;5048516;28;20069;-82
2023/09/08 08:56:31;;;;;;;7.00;6.30;;;24.10;65.30;;;;;;5034898;28;20048;-81
2023/09/08 08:58:58;;;;;;;8.73;7.22;;;24.20;65.60;;;;;;5039064;28;20173;-81
2023/09/08 09:01:26;;;;;;;11.73;6.38;;;24.30;66.20;;;;;;5048881;28;20149;-81
2023/09/08 09:03:52;;;;;;;8.80;6.65;;;24.30;65.10;;;;;;5035837;28;20030;-80
2023/09/08 09:06:18;;;;;;;8.77;6.07;;;24.40;64.70;;;;;;5012010;28;20093;-81
2023/09/08 09:08:44;;;;;;;8.02;6.15;;;24.30;63.50;;;;;;5023844;28;20105;-82
2023/09/08 09:11:11;;;;;;;7.22;5.65;;;24.40;64.00;;;;;;5016283;28;20120;-81
2023/09/08 09:13:37;;;;;;;9.30;6.82;;;24.50;63.90;;;;;;5030141;28;20441;-81
2023/09/08 09:16:04;;;;;;;7.30;6.38;;;24.70;64.30;;;;;;5016682;28;20018;-80
2023/09/08 09:18:30;;;;;;;8.82;5.88;;;24.60;62.60;;;;;;5030882;28;20048;-81
2023/09/08 09:20:59;;;;;;;6.30;5.50;;;24.60;61.70;;;;;;5018190;28;20062;-80
2023/09/08 09:23:29;;;;;;;7.22;6.50;;;24.50;61.90;;;;;;5029097;28;20022;-82
2023/09/08 09:25:54;;;;;;;7.93;6.07;;;24.50;62.30;;;;;;5026862;28;20033;-80
2023/09/08 09:28:20;;;;;;;7.85;6.22;;;24.40;61.40;;;;;;5037722;28;20368;-80
2023/09/08 09:30:48;;;;;;;10.25;5.57;;;24.50;61.30;;;;;;5032749;28;20029;-80
2023/09/08 09:33:14;;;;;;;6.60;5.50;;;24.60;61.80;;;;;;5029176;28;20471;-80
2023/09/08 09:35:48;;;;;;;9.80;6.35;;;24.60;60.20;;;;;;5035143;28;20025;-80
2023/09/08 09:38:14;;;;;;;7.22;6.53;;;24.60;60.80;;;;;;5032433;28;20045;-80
2023/09/08 09:40:40;;;;;;;7.00;6.30;;;24.70;62.10;;;;;;5025625;28;20039;-83
2023/09/08 09:43:07;;;;;;;8.30;6.57;;;24.70;61.90;;;;;;5034340;28;20029;-84
2023/09/08 09:45:34;;;;;;;9.13;6.20;;;24.80;62.50;;;;;;5043829;28;20398;-83
2023/09/08 09:47:59;;;;;;;8.98;5.70;;;24.90;62.70;;;;;;5041901;28;20067;-84
2023/09/08 09:50:41;;;;;;;7.97;6.55;;;24.90;60.90;;;;;;5034630;28;20025;-85
2023/09/08 09:53:15;;;;;;;10.07;6.85;;;25.00;59.30;;;;;;5037319;28;20033;-81
2023/09/08 09:55:43;;;;;;;7.18;5.88;;;25.20;60.40;;;;;;5030151;28;20029;-80
2023/09/08 09:58:10;;;;;;;7.63;6.07;;;25.10;59.20;;;;;;5033513;28;20559;-81
2023/09/08 10:00:37;;;;;;;7.03;5.68;;;25.00;58.20;;;;;;5031414;28;20040;-81
2023/09/08 10:03:04;;;;;;;7.47;5.68;;;25.20;58.30;;;;;;5041690;28;20034;-81
2023/09/08 10:05:30;;;;;;;6.63;5.50;;;25.30;59.10;;;;;;5042244;28;20030;-81
2023/09/08 10:07:56;;;;;;;9.13;6.53;;;25.20;57.40;;;;;;5095296;27;20361;-80
2023/09/08 10:10:22;;;;;;;7.13;6.03;;;25.10;57.60;;;;;;5026032;28;20038;-81
2023/09/08 10:12:57;;;;;;;7.22;5.65;;;25.10;57.60;;;;;;5030254;28;20041;-82
2023/09/08 10:15:24;;;;;;;7.93;5.90;;;25.10;57.50;;;;;;5028399;28;20083;-80
2023/09/08 10:17:58;;;;;;;9.88;5.80;;;25.30;58.20;;;;;;5032700;28;20049;-83
2023/09/08 10:20:25;;;;;;;7.03;6.30;;;25.20;56.80;;;;;;5031227;28;20018;-83
2023/09/08 10:23:18;;;;;;;10.02;6.43;;;25.10;56.40;;;;;;5032266;28;20126;-81
2023/09/08 10:25:53;;;;;;;6.45;5.65;;;25.10;57.00;;;;;;5025848;28;20546;-81
2023/09/08 10:28:19;;;;;;;6.00;5.40;;;25.10;57.80;;;;;;5030544;28;20025;-83
2023/09/08 10:30:46;;;;;;;8.77;6.22;;;25.10;56.50;;;;;;5032001;28;20026;-82
2023/09/08 10:33:12;;;;;;;7.93;6.22;;;25.20;57.50;;;;;;5034410;27;20030;-82
2023/09/08 10:35:39;;;;;;;8.63;5.97;;;25.30;57.80;;;;;;5033616;28;20026;-82
2023/09/08 10:38:26;;;;;;;6.50;5.60;;;25.20;57.00;;;;;;5034433;28;20038;-82
2023/09/08 10:40:53;;;;;;;7.05;6.03;;;25.30;56.90;;;;;;5030800;28;20520;-82
2023/09/08 10:43:20;;;;;;;10.48;5.85;;;25.30;57.30;;;;;;5031624;28;20364;-82
2023/09/08 10:45:47;;;;;;;6.60;5.70;;;25.30;57.00;;;;;;5034513;28;20029;-82
2023/09/08 10:48:14;;;;;;;11.50;6.03;;;25.30;57.30;;;;;;5028335;28;20666;-80
2023/09/08 10:50:41;;;;;;;6.95;5.97;;;25.40;56.90;;;;;;5024493;28;20028;-80
2023/09/08 10:53:16;;;;;;;9.68;5.75;;;25.40;56.20;;;;;;5030932;28;20039;-81
2023/09/08 10:55:47;;;;;;;8.68;5.72;;;25.30;55.60;;;;;;5029863;28;20119;-80
2023/09/08 10:58:28;;;;;;;7.32;6.03;;;25.10;56.40;;;;;;5027974;28;20186;-81
2023/09/08 11:00:56;;;;;;;7.88;5.40;;;25.30;56.70;;;;;;5023393;28;20034;-81
2023/09/08 11:03:27;;;;;;;7.38;5.78;;;25.30;56.20;;;;;;5029615;28;20565;-80
2023/09/08 11:05:54;;;;;;;6.85;5.85;;;25.40;56.50;;;;;;5030847;28;20020;-80
2023/09/08 11:08:19;;;;;;;9.00;5.28;;;25.40;56.30;;;;;;5022573;28;20130;-82
2023/09/08 11:10:45;;;;;;;5.35;4.75;;;25.40;55.40;;;;;;5032634;28;20024;-81
2023/09/08 11:13:11;;;;;;;8.27;5.15;;;25.40;54.10;;;;;;5029816;28;20441;-81
2023/09/08 11:15:37;;;;;;;5.97;4.93;;;25.40;53.40;;;;;;5024189;28;20147;-81
2023/09/08 11:18:07;;;;;;;5.75;4.72;;;25.40;53.70;;;;;;5032805;28;20113;-81
2023/09/08 11:20:34;;;;;;;5.63;5.10;;;25.40;54.10;;;;;;5039169;28;20873;-81
2023/09/08 11:23:00;;;;;;;4.88;4.40;;;25.50;54.10;;;;;;5029814;28;20059;-81
2023/09/08 11:25:25;;;;;;;7.32;5.07;;;25.50;53.60;;;;;;5038041;28;20026;-81
2023/09/08 11:27:51;;;;;;;6.07;4.57;;;25.60;54.60;;;;;;5036117;28;20739;-81
2023/09/08 11:30:17;;;;;;;6.18;5.25;;;25.70;54.20;;;;;;5031672;28;20018;-79
2023/09/08 11:32:43;;;;;;;6.75;5.00;;;25.60;53.00;;;;;;5026945;28;20025;-79
2023/09/08 11:35:10;;;;;;;5.60;4.95;;;25.70;53.20;;;;;;5030249;28;20028;-79
2023/09/08 11:37:45;;;;;;;14.82;6.38;;;25.90;54.10;;;;;;5034615;28;20459;-79
2023/09/08 11:40:13;;;;;;;7.03;5.88;;;25.90;55.10;;;;;;5027312;28;20047;-79
2023/09/08 11:42:44;;;;;;;6.80;5.47;;;25.80;53.90;;;;;;5036469;28;20482;-79
2023/09/08 11:45:14;;;;;;;7.35;5.63;;;25.90;54.90;;;;;;5031415;28;20045;-79
2023/09/08 11:47:43;;;;;;;9.13;5.75;;;25.90;54.70;;;;;;5030237;28;20097;-79
2023/09/08 11:50:15;;;;;;;7.97;5.75;;;25.80;54.10;;;;;;5030994;28;20021;-79
2023/09/08 11:52:46;;;;;;;9.68;6.22;;;25.80;53.60;;;;;;5031290;28;20035;-79
2023/09/08 11:55:13;;;;;;;7.03;5.60;;;25.80;53.80;;;;;;5039009;28;20028;-79
2023/09/08 11:57:40;;;;;;;6.15;5.15;;;25.70;54.60;;;;;;5030118;28;20053;-78
2023/09/08 12:00:10;;;;;;;6.70;5.50;;;25.80;55.00;;;;;;5031274;28;20478;-79
2023/09/08 12:02:37;;;;;;;7.75;5.50;;;25.90;54.50;;;;;;5027821;28;20074;-79
2023/09/08 12:05:03;;;;;;;8.15;4.97;;;25.90;53.80;;;;;;5028440;28;20030;-78
2023/09/08 12:07:29;;;;;;;5.78;5.07;;;26.00;54.10;;;;;;5018229;28;20053;-79
2023/09/08 12:09:55;;;;;;;6.97;4.95;;;26.00;53.90;;;;;;5026128;28;20053;-79
2023/09/08 12:12:20;;;;;;;5.43;4.88;;;25.90;52.90;;;;;;5030177;28;20025;-79
2023/09/08 12:14:46;;;;;;;7.82;5.15;;;26.10;52.70;;;;;;5048713;28;20433;-79
2023/09/08 12:17:15;;;;;;;6.95;5.55;;;26.00;51.90;;;;;;5036267;28;20028;-79
2023/09/08 12:19:41;;;;;;;6.78;4.57;;;26.00;52.60;;;;;;5038854;28;20271;-79
2023/09/08 12:22:07;;;;;;;6.47;4.57;;;26.00;52.00;;;;;;5041572;28;20029;-79
2023/09/08 12:24:56;;;;;;;4.95;4.10;;;25.90;51.30;;;;;;5029709;28;20064;-82
2023/09/08 12:27:23;;;;;;;5.60;4.70;;;26.00;52.10;;;;;;5049044;28;20083;-79
2023/09/08 12:29:55;;;;;;;8.55;5.15;;;26.00;51.70;;;;;;5036540;28;20364;-80
2023/09/08 12:32:21;;;;;;;;;;;26.00;52.10;;;;;;5046622;28;20456;-79